createdAt,value
2023-03-26T00:01:36.958Z,100.00
2023-03-26T00:04:07.070Z,100.00
2023-03-26T00:06:39.293Z,100.00
2023-03-26T00:09:10.848Z,100.00
2023-03-26T00:11:38.130Z,100.00
2023-03-26T00:14:05.642Z,100.00
2023-03-26T00:16:33.670Z,100.00
2023-03-26T00:19:02.092Z,100.00
2023-03-26T00:21:31.107Z,100.00
2023-03-26T00:24:06.254Z,100.00
2023-03-26T00:26:35.745Z,100.00
2023-03-26T00:29:04.176Z,100.00
2023-03-26T00:31:32.024Z,100.00
2023-03-26T00:34:01.134Z,100.00
2023-03-26T00:36:28.978Z,100.00
2023-03-26T00:38:56.177Z,100.00
2023-03-26T00:41:26.594Z,100.00
2023-03-26T00:43:59.850Z,100.00
2023-03-26T00:46:30.846Z,100.00
2023-03-26T00:49:00.004Z,100.00
2023-03-26T00:51:28.610Z,100.00
2023-03-26T00:53:56.523Z,100.00
2023-03-26T00:56:23.913Z,100.00
2023-03-26T00:58:50.883Z,100.00
2023-03-26T01:01:28.711Z,100.00
2023-03-26T01:04:24.368Z,100.00
2023-03-26T01:06:51.704Z,100.00
2023-03-26T01:09:21.826Z,100.00
2023-03-26T01:11:50.056Z,100.00
2023-03-26T01:14:23.623Z,100.00
2023-03-26T01:16:55.402Z,100.00
2023-03-26T01:20:20.568Z,100.00
2023-03-26T01:22:55.732Z,100.00
2023-03-26T01:25:25.540Z,100.00
2023-03-26T01:27:56.440Z,100.00
2023-03-26T01:30:43.155Z,100.00
2023-03-26T01:33:34.065Z,100.00
2023-03-26T01:36:08.497Z,100.00
2023-03-26T01:38:53.551Z,100.00
2023-03-26T01:41:37.592Z,100.00
2023-03-26T01:44:32.016Z,100.00
2023-03-26T01:47:01.237Z,100.00
2023-03-26T01:49:30.411Z,100.00
2023-03-26T01:51:58.589Z,100.00
2023-03-26T01:54:30.351Z,100.00
2023-03-26T01:57:30.271Z,100.00
2023-03-26T02:00:24.423Z,100.00
2023-03-26T02:03:05.959Z,100.00
2023-03-26T02:05:51.159Z,100.00
2023-03-26T02:08:35.752Z,100.00
2023-03-26T02:11:13.313Z,100.00
2023-03-26T02:13:45.633Z,100.00
2023-03-26T02:16:16.975Z,100.00
2023-03-26T02:18:45.775Z,100.00
2023-03-26T02:21:21.477Z,100.00
2023-03-26T02:24:03.472Z,100.00
2023-03-26T02:26:33.503Z,100.00
2023-03-26T02:29:01.850Z,100.00
2023-03-26T02:31:30.394Z,100.00
2023-03-26T02:33:57.572Z,100.00
2023-03-26T02:36:27.648Z,100.00
2023-03-26T02:38:58.111Z,100.00
2023-03-26T02:41:25.532Z,100.00
2023-03-26T02:43:52.778Z,100.00
2023-03-26T02:46:20.625Z,100.00
2023-03-26T02:48:48.768Z,100.00
2023-03-26T02:51:18.286Z,100.00
2023-03-26T02:53:46.150Z,100.00
2023-03-26T02:56:13.372Z,100.00
2023-03-26T02:58:40.462Z,100.00
2023-03-26T03:01:07.889Z,100.00
2023-03-26T03:03:36.413Z,100.00
2023-03-26T03:06:03.664Z,100.00
2023-03-26T03:08:30.753Z,100.00
2023-03-26T03:11:03.104Z,100.00
2023-03-26T03:13:30.568Z,100.00
2023-03-26T03:15:57.736Z,100.00
2023-03-26T03:18:25.036Z,100.00
2023-03-26T03:20:53.953Z,100.00
2023-03-26T03:25:53.135Z,100.00
2023-03-26T03:28:20.567Z,100.00
2023-03-26T03:30:49.047Z,100.00
2023-03-26T03:33:16.221Z,100.00
2023-03-26T03:35:43.348Z,100.00
2023-03-26T03:38:13.983Z,100.00
2023-03-26T03:40:41.409Z,100.00
2023-03-26T03:43:08.396Z,100.00
2023-03-26T03:45:35.737Z,100.00
2023-03-26T03:48:03.025Z,100.00
2023-03-26T03:50:35.659Z,100.00
2023-03-26T03:53:05.921Z,100.00
2023-03-26T03:55:33.762Z,100.00
2023-03-26T03:58:01.609Z,100.00
2023-03-26T04:00:30.960Z,100.00
2023-03-26T04:02:58.832Z,100.00
2023-03-26T04:05:26.631Z,100.00
2023-03-26T04:07:54.032Z,100.00
2023-03-26T04:10:21.545Z,100.00
2023-03-26T04:12:49.484Z,100.00
2023-03-26T04:15:17.011Z,100.00
2023-03-26T04:17:45.038Z,100.00
2023-03-26T04:20:15.945Z,100.00
2023-03-26T04:22:43.928Z,100.00
2023-03-26T04:25:13.182Z,100.00
2023-03-26T04:27:43.424Z,100.00
2023-03-26T04:30:20.109Z,100.00
2023-03-26T04:32:47.282Z,100.00
2023-03-26T04:35:16.753Z,100.00
2023-03-26T04:37:46.101Z,100.00
2023-03-26T04:40:20.676Z,100.00
2023-03-26T04:42:48.155Z,100.00
2023-03-26T04:45:22.481Z,100.00
2023-03-26T04:47:50.631Z,100.00
2023-03-26T04:50:17.863Z,100.00
2023-03-26T04:52:45.410Z,100.00
2023-03-26T04:55:28.251Z,100.00
2023-03-26T04:58:00.254Z,100.00
2023-03-26T05:00:27.702Z,100.00
2023-03-26T05:02:58.084Z,100.00
2023-03-26T05:05:26.206Z,100.00
2023-03-26T05:07:53.859Z,100.00
2023-03-26T05:10:22.140Z,100.00
2023-03-26T05:12:49.593Z,100.00
2023-03-26T05:15:16.762Z,100.00
2023-03-26T05:17:43.979Z,100.00
2023-03-26T05:20:24.839Z,100.00
2023-03-26T05:22:52.659Z,100.00
2023-03-26T05:25:20.116Z,100.00
2023-03-26T05:27:47.507Z,100.00
2023-03-26T05:30:18.428Z,100.00
2023-03-26T05:32:48.846Z,100.00
2023-03-26T05:35:17.448Z,100.00
2023-03-26T05:37:46.544Z,100.00
2023-03-26T05:40:17.117Z,100.00
2023-03-26T05:42:45.737Z,100.00
2023-03-26T05:45:15.009Z,100.00
2023-03-26T05:47:42.546Z,100.00
2023-03-26T05:50:11.689Z,100.00
2023-03-26T05:52:39.234Z,100.00
2023-03-26T05:55:08.302Z,100.00
2023-03-26T05:57:35.789Z,100.00
2023-03-26T06:00:05.046Z,100.00
2023-03-26T06:02:32.390Z,100.00
2023-03-26T06:05:03.064Z,100.00
2023-03-26T06:07:32.576Z,100.00
2023-03-26T06:09:59.779Z,100.00
2023-03-26T06:12:27.503Z,100.00
2023-03-26T06:14:55.004Z,100.00
2023-03-26T06:17:22.729Z,100.00
2023-03-26T06:19:50.253Z,100.00
2023-03-26T06:22:17.670Z,100.00
2023-03-26T06:24:45.042Z,100.00
2023-03-26T06:27:12.480Z,100.00
2023-03-26T06:29:39.507Z,100.00
2023-03-26T06:32:18.338Z,100.00
2023-03-26T06:34:46.852Z,100.00
2023-03-26T06:37:14.095Z,100.00
2023-03-26T06:39:41.069Z,100.00
2023-03-26T06:42:08.623Z,100.00
2023-03-26T06:44:36.032Z,100.00
2023-03-26T06:47:03.419Z,100.00
2023-03-26T06:49:30.457Z,100.00
2023-03-26T06:51:57.856Z,100.00
2023-03-26T06:54:25.452Z,100.00
2023-03-26T06:56:52.621Z,100.00
2023-03-26T06:59:19.970Z,100.00
2023-03-26T07:01:47.052Z,100.00
2023-03-26T07:04:14.481Z,100.00
2023-03-26T07:06:41.527Z,100.00
2023-03-26T07:09:09.398Z,100.00
2023-03-26T07:11:36.461Z,100.00
2023-03-26T07:14:03.752Z,100.00
2023-03-26T07:16:30.842Z,100.00
2023-03-26T07:18:58.284Z,100.00
2023-03-26T07:21:26.215Z,100.00
2023-03-26T07:23:55.095Z,100.00
2023-03-26T07:27:32.054Z,100.00
2023-03-26T07:30:08.646Z,100.00
2023-03-26T07:32:59.845Z,100.00
2023-03-26T07:35:38.870Z,100.00
2023-03-26T07:38:39.952Z,100.00
2023-03-26T07:41:41.106Z,100.00
2023-03-26T07:44:39.948Z,100.00
2023-03-26T07:47:29.334Z,100.00
2023-03-26T07:49:57.913Z,100.00
2023-03-26T07:52:27.275Z,100.00
2023-03-26T07:54:54.993Z,100.00
2023-03-26T07:58:11.621Z,100.00
2023-03-26T08:00:53.807Z,100.00
2023-03-26T08:04:00.438Z,100.00
2023-03-26T08:07:01.256Z,100.00
2023-03-26T08:09:49.663Z,100.00
2023-03-26T08:12:35.330Z,100.00
2023-03-26T08:15:14.447Z,100.00
2023-03-26T08:17:52.258Z,100.00
2023-03-26T08:20:49.413Z,100.00
2023-03-26T08:23:51.024Z,100.00
2023-03-26T08:26:58.477Z,100.00
2023-03-26T08:30:10.515Z,100.00
2023-03-26T08:32:38.583Z,100.00
2023-03-26T08:35:06.438Z,100.00
2023-03-26T08:37:33.767Z,100.00
2023-03-26T08:40:00.890Z,100.00
2023-03-26T08:43:23.959Z,100.00
2023-03-26T08:46:18.920Z,100.00
2023-03-26T08:48:59.500Z,100.00
2023-03-26T08:51:57.400Z,100.00
2023-03-26T08:54:41.333Z,100.00
2023-03-26T08:57:51.856Z,100.00
2023-03-26T09:00:52.064Z,100.00
2023-03-26T09:03:52.835Z,100.00
2023-03-26T09:06:57.435Z,100.00
2023-03-26T09:10:37.906Z,100.00
2023-03-26T09:13:54.082Z,100.00
2023-03-26T09:16:47.313Z,100.00
2023-03-26T09:19:46.821Z,100.00
2023-03-26T09:22:35.744Z,100.00
2023-03-26T09:25:31.628Z,100.00
2023-03-26T09:28:41.908Z,100.00
2023-03-26T09:31:45.889Z,100.00
2023-03-26T09:35:03.761Z,100.00
2023-03-26T09:37:58.818Z,100.00
2023-03-26T09:40:47.378Z,100.00
2023-03-26T09:43:44.925Z,100.00
2023-03-26T09:46:42.160Z,100.00
2023-03-26T09:49:30.547Z,100.00
2023-03-26T09:52:27.228Z,100.00
2023-03-26T09:55:51.173Z,100.00
2023-03-26T09:58:33.776Z,100.00
2023-03-26T10:01:38.407Z,100.00
2023-03-26T10:04:33.514Z,100.00
2023-03-26T10:07:57.411Z,100.00
2023-03-26T10:10:40.134Z,100.00
2023-03-26T10:13:33.465Z,100.00
2023-03-26T10:16:23.098Z,100.00
2023-03-26T10:19:07.975Z,100.00
2023-03-26T10:22:18.264Z,100.00
2023-03-26T10:25:22.143Z,100.00
2023-03-26T10:28:07.536Z,100.00
2023-03-26T10:31:13.864Z,100.00
2023-03-26T10:34:29.218Z,100.00
2023-03-26T10:37:57.923Z,100.00
2023-03-26T10:40:43.189Z,100.00
2023-03-26T10:44:01.243Z,100.00
2023-03-26T10:46:41.591Z,100.00
2023-03-26T10:49:56.463Z,100.00
2023-03-26T10:52:39.417Z,100.00
2023-03-26T10:55:38.484Z,100.00
2023-03-26T10:58:29.722Z,100.00
2023-03-26T11:01:32.373Z,100.00
2023-03-26T11:04:24.366Z,100.00
2023-03-26T11:07:05.044Z,100.00
2023-03-26T11:10:02.809Z,97.12
2023-03-26T11:12:46.716Z,94.28
2023-03-26T11:15:17.538Z,90.68
2023-03-26T11:18:22.397Z,86.76
2023-03-26T11:21:19.527Z,84.65
2023-03-26T11:24:28.252Z,83.70
2023-03-26T11:27:26.448Z,82.47
2023-03-26T11:30:20.832Z,81.21
2023-03-26T11:32:57.592Z,78.38
2023-03-26T11:35:39.379Z,76.96
2023-03-26T11:38:37.741Z,77.00
2023-03-26T11:41:14.583Z,76.12
2023-03-26T11:43:42.012Z,74.23
2023-03-26T11:46:15.465Z,74.73
2023-03-26T11:49:06.963Z,74.59
2023-03-26T11:51:39.570Z,73.42
2023-03-26T11:54:10.883Z,72.74
2023-03-26T11:57:04.505Z,71.09
2023-03-26T12:00:15.876Z,71.62
2023-03-26T12:02:45.064Z,70.26
2023-03-26T12:05:22.832Z,72.05
2023-03-26T12:07:58.155Z,70.61
2023-03-26T12:10:39.703Z,70.05
2023-03-26T12:13:45.307Z,70.43
2023-03-26T12:16:19.053Z,69.48
2023-03-26T12:19:01.621Z,68.02
2023-03-26T12:21:29.062Z,67.68
2023-03-26T12:24:07.164Z,68.74
2023-03-26T12:26:39.805Z,67.35
2023-03-26T12:29:14.405Z,68.11
2023-03-26T12:31:49.613Z,67.15
2023-03-26T12:34:20.726Z,68.01
2023-03-26T12:36:56.801Z,67.93
2023-03-26T12:40:07.472Z,67.74
2023-03-26T12:44:47.973Z,66.26
2023-03-26T12:45:24.646Z,65.27
2023-03-26T12:48:03.506Z,64.14
2023-03-26T12:50:43.116Z,63.35
2023-03-26T12:53:30.237Z,63.14
2023-03-26T12:56:23.987Z,61.49
2023-03-26T12:59:36.494Z,60.24
2023-03-26T13:02:40.327Z,60.08
2023-03-26T13:08:29.095Z,60.34
2023-03-26T13:10:56.764Z,61.39
2023-03-26T13:13:53.333Z,60.17
2023-03-26T13:17:16.039Z,59.93
2023-03-26T13:20:01.889Z,59.08
2023-03-26T13:23:10.517Z,59.63
2023-03-26T13:26:00.152Z,60.01
2023-03-26T13:28:58.915Z,60.20
2023-03-26T13:31:39.479Z,59.89
2023-03-26T13:34:41.273Z,60.41
2023-03-26T13:37:35.275Z,61.43
2023-03-26T13:40:25.505Z,62.45
2023-03-26T13:43:32.355Z,62.18
2023-03-26T13:46:02.166Z,61.00
2023-03-26T13:48:38.359Z,60.43
2023-03-26T13:51:08.961Z,60.85
2023-03-26T13:53:49.072Z,60.86
2023-03-26T13:56:21.358Z,62.16
2023-03-26T13:59:03.912Z,61.81
2023-03-26T14:01:41.072Z,61.64
2023-03-26T14:04:25.307Z,61.66
2023-03-26T14:07:18.131Z,61.37
2023-03-26T14:09:54.501Z,61.91
2023-03-26T14:13:29.928Z,63.00
2023-03-26T14:15:58.305Z,64.42
2023-03-26T14:18:54.980Z,65.62
2023-03-26T14:22:02.746Z,66.09
2023-03-26T14:25:08.388Z,65.85
2023-03-26T14:27:50.975Z,65.73
2023-03-26T14:30:33.401Z,65.73
2023-03-26T14:33:35.228Z,69.14
2023-03-26T14:36:43.424Z,71.31
2023-03-26T14:39:29.905Z,71.63
2023-03-26T14:42:26.369Z,72.18
2023-03-26T14:45:21.534Z,72.65
2023-03-26T14:48:18.188Z,73.69
2023-03-26T14:51:37.608Z,74.27
2023-03-26T14:54:14.313Z,74.89
2023-03-26T14:57:11.825Z,75.13
2023-03-26T15:00:16.338Z,75.45
2023-03-26T15:03:09.748Z,76.64
2023-03-26T15:05:40.959Z,77.07
2023-03-26T15:08:33.554Z,78.01
2023-03-26T15:11:14.868Z,78.52
2023-03-26T15:13:45.027Z,79.09
2023-03-26T15:16:46.978Z,79.71
2023-03-26T15:19:51.468Z,79.83
2023-03-26T15:22:18.810Z,80.56
2023-03-26T15:25:22.451Z,81.20
2023-03-26T15:28:35.280Z,82.20
2023-03-26T15:31:49.442Z,82.49
2023-03-26T15:34:20.007Z,83.32
2023-03-26T15:37:34.892Z,84.19
2023-03-26T15:40:43.042Z,85.17
2023-03-26T15:43:16.345Z,86.20
2023-03-26T15:46:07.883Z,86.83
2023-03-26T15:48:42.425Z,87.47
2023-03-26T15:51:52.103Z,88.08
2023-03-26T15:54:46.898Z,88.53
2023-03-26T15:57:30.621Z,88.85
2023-03-26T15:59:59.263Z,88.34
2023-03-26T16:02:41.937Z,88.47
2023-03-26T16:05:42.030Z,89.08
2023-03-26T16:08:38.781Z,89.00
2023-03-26T16:11:12.723Z,88.48
2023-03-26T16:13:41.535Z,88.04
2023-03-26T16:16:14.560Z,87.09
2023-03-26T16:18:54.431Z,86.15
2023-03-26T16:21:32.812Z,86.14
2023-03-26T16:24:03.229Z,85.89
2023-03-26T16:26:51.345Z,86.49
2023-03-26T16:29:25.821Z,86.80
2023-03-26T16:32:16.263Z,87.17
2023-03-26T16:35:03.050Z,86.61
2023-03-26T16:37:36.451Z,85.86
2023-03-26T16:40:22.345Z,85.54
2023-03-26T16:43:26.861Z,86.70
2023-03-26T16:46:06.189Z,86.86
2023-03-26T16:49:15.356Z,86.64
2023-03-26T16:52:10.745Z,86.45
2023-03-26T16:54:49.501Z,84.32
2023-03-26T16:57:34.505Z,84.50
2023-03-26T17:00:19.031Z,83.59
2023-03-26T17:03:19.011Z,81.93
2023-03-26T17:05:57.822Z,82.54
2023-03-26T17:08:54.608Z,82.95
2023-03-26T17:11:29.877Z,82.89
2023-03-26T17:14:48.999Z,83.24
2023-03-26T17:18:05.173Z,82.75
2023-03-26T17:21:16.473Z,83.35
2023-03-26T17:24:15.585Z,83.08
2023-03-26T17:27:04.026Z,83.68
2023-03-26T17:30:38.608Z,83.46
2023-03-26T17:33:06.061Z,83.59
2023-03-26T17:35:44.910Z,83.71
2023-03-26T17:38:17.918Z,83.78
2023-03-26T17:40:47.716Z,83.55
2023-03-26T17:43:50.704Z,84.23
2023-03-26T17:46:32.038Z,85.45
2023-03-26T17:49:19.567Z,87.13
2023-03-26T17:52:06.297Z,88.70
2023-03-26T17:54:41.511Z,90.31
2023-03-26T17:57:42.318Z,91.69
2023-03-26T18:00:22.910Z,91.56
2023-03-26T18:03:02.469Z,91.23
2023-03-26T18:05:31.399Z,90.72
2023-03-26T18:08:17.516Z,91.01
2023-03-26T18:11:46.479Z,90.82
2023-03-26T18:14:45.252Z,91.14
2023-03-26T18:17:12.698Z,91.65
2023-03-26T18:19:53.708Z,92.76
2023-03-26T18:22:25.813Z,93.17
2023-03-26T18:24:59.753Z,93.29
2023-03-26T18:27:36.700Z,94.41
2023-03-26T18:30:15.539Z,93.95
2023-03-26T18:33:05.202Z,94.88
2023-03-26T18:35:51.898Z,95.11
2023-03-26T18:38:37.548Z,94.24
2023-03-26T18:41:30.434Z,94.29
2023-03-26T18:44:02.803Z,94.84
2023-03-26T18:46:30.418Z,95.43
2023-03-26T18:49:00.043Z,95.25
2023-03-26T18:51:28.917Z,95.20
2023-03-26T18:54:02.083Z,94.70
2023-03-26T18:56:39.502Z,94.04
2023-03-26T18:59:20.645Z,92.72
2023-03-26T19:01:48.667Z,92.00
2023-03-26T19:04:16.370Z,91.91
2023-03-26T19:06:44.305Z,90.70
2023-03-26T19:09:24.267Z,90.94
2023-03-26T19:12:06.866Z,91.29
2023-03-26T19:14:37.047Z,91.01
2023-03-26T19:17:07.062Z,91.34
2023-03-26T19:19:37.681Z,92.04
2023-03-26T19:22:07.230Z,93.18
2023-03-26T19:24:34.697Z,94.21
2023-03-26T19:27:02.814Z,95.56
2023-03-26T19:29:33.771Z,96.58
2023-03-26T19:32:06.647Z,97.53
2023-03-26T19:34:40.813Z,99.44
2023-03-26T19:37:20.246Z,100.00
2023-03-26T19:40:09.773Z,100.00
2023-03-26T19:42:43.677Z,100.00
2023-03-26T19:45:19.360Z,100.00
2023-03-26T19:47:48.587Z,100.00
2023-03-26T19:50:26.810Z,100.00
2023-03-26T19:53:19.288Z,100.00
2023-03-26T19:55:55.657Z,100.00
2023-03-26T19:58:23.711Z,100.00
2023-03-26T20:00:51.065Z,100.00
2023-03-26T20:03:27.587Z,100.00
2023-03-26T20:05:55.216Z,100.00
2023-03-26T20:08:27.018Z,100.00
2023-03-26T20:10:57.042Z,100.00
2023-03-26T20:13:25.081Z,100.00
2023-03-26T20:16:10.758Z,100.00
2023-03-26T20:18:38.719Z,100.00
2023-03-26T20:21:12.244Z,100.00
2023-03-26T20:23:40.984Z,100.00
2023-03-26T20:26:14.170Z,100.00
2023-03-26T20:28:47.549Z,100.00
2023-03-26T20:31:22.112Z,100.00
2023-03-26T20:33:50.741Z,100.00
2023-03-26T20:36:34.309Z,100.00
2023-03-26T20:39:08.504Z,100.00
2023-03-26T20:41:42.807Z,100.00
2023-03-26T20:44:15.474Z,100.00
2023-03-26T20:46:44.179Z,100.00
2023-03-26T20:49:12.430Z,100.00
2023-03-26T20:51:42.108Z,100.00
2023-03-26T20:54:18.948Z,100.00
2023-03-26T20:56:47.991Z,100.00
2023-03-26T20:59:26.430Z,100.00
2023-03-26T21:01:56.702Z,100.00
2023-03-26T21:04:24.967Z,100.00
2023-03-26T21:06:57.665Z,100.00
2023-03-26T21:09:35.474Z,100.00
2023-03-26T21:12:09.706Z,100.00
2023-03-26T21:14:41.779Z,100.00
2023-03-26T21:17:20.037Z,100.00
2023-03-26T21:19:47.990Z,100.00
2023-03-26T21:22:26.770Z,100.00
2023-03-26T21:25:54.112Z,100.00
2023-03-26T21:28:47.645Z,100.00
2023-03-26T21:31:20.738Z,100.00
2023-03-26T21:33:49.720Z,100.00
2023-03-26T21:36:19.905Z,100.00
2023-03-26T21:38:47.916Z,100.00
2023-03-26T21:41:22.945Z,100.00
2023-03-26T21:43:51.141Z,100.00
2023-03-26T21:46:18.871Z,100.00
2023-03-26T21:48:46.622Z,100.00
2023-03-26T21:51:19.491Z,100.00
2023-03-26T21:53:47.088Z,100.00
2023-03-26T21:56:57.889Z,100.00
2023-03-26T21:59:38.948Z,100.00
2023-03-26T22:02:36.322Z,100.00
2023-03-26T22:05:12.397Z,100.00
2023-03-26T22:07:57.095Z,100.00
2023-03-26T22:10:24.578Z,100.00
2023-03-26T22:12:52.027Z,100.00
2023-03-26T22:15:20.161Z,100.00
2023-03-26T22:17:55.899Z,100.00
2023-03-26T22:20:25.202Z,100.00
2023-03-26T22:22:53.505Z,100.00
2023-03-26T22:25:22.001Z,100.00
2023-03-26T22:27:51.000Z,100.00
2023-03-26T22:30:19.045Z,100.00
2023-03-26T22:32:46.669Z,100.00
2023-03-26T22:35:14.610Z,100.00
2023-03-26T22:37:42.113Z,100.00
2023-03-26T22:40:10.491Z,100.00
2023-03-26T22:42:37.903Z,100.00
2023-03-26T22:45:05.722Z,100.00
2023-03-26T22:47:35.974Z,100.00
2023-03-26T22:50:04.852Z,100.00
2023-03-26T22:52:32.341Z,100.00
2023-03-26T22:54:59.810Z,100.00
2023-03-26T22:57:29.870Z,100.00
2023-03-26T23:00:04.039Z,100.00
2023-03-26T23:02:31.512Z,100.00
2023-03-26T23:04:58.920Z,100.00
2023-03-26T23:07:26.231Z,100.00
2023-03-26T23:09:53.872Z,100.00
2023-03-26T23:12:21.238Z,100.00
2023-03-26T23:14:52.360Z,100.00
2023-03-26T23:17:19.946Z,100.00
2023-03-26T23:19:47.335Z,100.00
2023-03-26T23:22:14.691Z,100.00
2023-03-26T23:24:42.081Z,100.00
2023-03-26T23:27:09.460Z,100.00
2023-03-26T23:29:37.390Z,100.00
2023-03-26T23:32:24.005Z,100.00
2023-03-26T23:34:52.710Z,100.00
2023-03-26T23:37:23.371Z,100.00
2023-03-26T23:39:51.664Z,100.00
2023-03-26T23:42:28.736Z,100.00
2023-03-26T23:44:57.522Z,100.00
2023-03-26T23:47:25.335Z,100.00
2023-03-26T23:49:52.686Z,100.00
2023-03-26T23:52:20.060Z,100.00
2023-03-26T23:54:47.368Z,100.00
2023-03-26T23:57:14.754Z,100.00
2023-03-26T23:59:42.124Z,100.00
